Time;durP1;ratioP1;P1;durP2;ratioP2;P2;SDS_P1;SDS_P2;PMS_P1;PMS_P2;Temp;Humidity;BMP_temperature;BMP_pressure;BME280_temperature;BME280_humidity;BME280_pressure;Samples;Min_cycle;Max_cycle;Signal;HPM_P1;HPM_P2
2022/12/25 00:01:22;;;;;;;0.30;0.30;;;;;;;;;;5071822;28;20025;-65
2022/12/25 00:03:49;;;;;;;1.23;0.73;;;;;;;;;;5071988;28;20024;-65
2022/12/25 00:06:16;;;;;;;5.60;1.80;;;;;;;;;;5071288;28;20399;-65
2022/12/25 00:08:43;;;;;;;0.90;0.70;;;;;;;;;;5071267;28;20082;-65
2022/12/25 00:11:13;;;;;;;1.40;0.67;;;;;;;;;;5066727;28;20146;-65
2022/12/25 00:13:40;;;;;;;0.93;0.70;;;;;;;;;;5066518;28;20498;-64
2022/12/25 00:16:08;;;;;;;0.60;0.47;;;;;;;;;;5066655;28;20471;-65
2022/12/25 00:18:35;;;;;;;2.03;1.00;;;;;;;;;;5066266;28;20029;-65
2022/12/25 00:21:03;;;;;;;12.97;1.27;;;;;;;;;;5070614;28;20045;-69
2022/12/25 00:23:30;;;;;;;2.60;0.93;;;;;;;;;;5071422;28;20526;-65
2022/12/25 00:25:57;;;;;;;2.23;1.13;;;;;;;;;;5070974;28;20032;-65
2022/12/25 00:28:24;;;;;;;0.93;0.67;;;;;;;;;;5071338;28;20033;-64
2022/12/25 00:30:51;;;;;;;0.87;0.50;;;;;;;;;;5071395;28;20071;-64
2022/12/25 00:33:18;;;;;;;1.73;1.00;;;;;;;;;;5068415;28;20043;-64
2022/12/25 00:35:45;;;;;;;2.73;1.27;;;;;;;;;;5069691;28;20024;-65
2022/12/25 00:38:11;;;;;;;0.63;0.53;;;;;;;;;;5068903;28;20448;-65
2022/12/25 00:40:42;;;;;;;1.07;0.73;;;;;;;;;;5069741;28;20054;-64
2022/12/25 00:43:09;;;;;;;2.10;0.67;;;;;;;;;;5073727;28;20024;-64
2022/12/25 00:45:36;;;;;;;2.33;1.00;;;;;;;;;;5074811;28;20466;-65
2022/12/25 00:48:03;;;;;;;1.83;0.67;;;;;;;;;;5075157;28;20107;-64
2022/12/25 00:50:29;;;;;;;5.40;1.40;;;;;;;;;;5074657;28;20043;-64
2022/12/25 00:52:56;;;;;;;2.57;1.17;;;;;;;;;;5074224;28;20024;-65
2022/12/25 00:55:23;;;;;;;0.83;0.47;;;;;;;;;;5070073;28;20462;-65
2022/12/25 00:57:49;;;;;;;1.23;0.80;;;;;;;;;;5069504;28;20025;-64
2022/12/25 01:00:16;;;;;;;1.33;0.90;;;;;;;;;;5069024;28;20021;-65
2022/12/25 01:02:43;;;;;;;1.37;0.83;;;;;;;;;;5069417;28;20047;-64
2022/12/25 01:05:09;;;;;;;0.57;0.37;;;;;;;;;;5073381;28;20390;-64
2022/12/25 01:07:36;;;;;;;1.20;0.50;;;;;;;;;;5074417;28;20021;-64
2022/12/25 01:10:21;;;;;;;0.70;0.40;;;;;;;;;;5073517;28;20043;-65
2022/12/25 01:12:48;;;;;;;0.60;0.55;;;;;;;;;;5074343;28;20482;-64
2022/12/25 01:15:15;;;;;;;2.57;1.20;;;;;;;;;;5074302;28;20056;-64
2022/12/25 01:17:42;;;;;;;1.60;0.90;;;;;;;;;;5069400;28;20029;-64
2022/12/25 01:20:09;;;;;;;1.53;0.93;;;;;;;;;;5069040;28;20025;-64
2022/12/25 01:22:36;;;;;;;1.53;0.93;;;;;;;;;;5068689;28;20062;-65
2022/12/25 01:25:04;;;;;;;3.30;1.23;;;;;;;;;;5068977;28;20032;-64
2022/12/25 01:27:31;;;;;;;2.07;1.20;;;;;;;;;;5072795;28;20024;-64
2022/12/25 01:29:58;;;;;;;0.90;0.40;;;;;;;;;;5073842;28;20032;-64
2022/12/25 01:32:25;;;;;;;3.73;1.17;;;;;;;;;;5074093;28;20422;-64
2022/12/25 01:34:51;;;;;;;2.97;1.03;;;;;;;;;;5073861;28;20025;-64
2022/12/25 01:37:18;;;;;;;0.90;0.80;;;;;;;;;;5073445;28;20092;-66
2022/12/25 01:39:45;;;;;;;2.70;0.47;;;;;;;;;;5069590;28;20028;-64
2022/12/25 01:42:18;;;;;;;0.40;0.30;;;;;;;;;;5068554;28;20024;-65
2022/12/25 01:44:48;;;;;;;0.80;0.40;;;;;;;;;;5068363;28;20020;-64
2022/12/25 01:47:15;;;;;;;1.77;0.70;;;;;;;;;;5068077;28;20032;-65
2022/12/25 01:49:44;;;;;;;0.83;0.77;;;;;;;;;;5071966;28;20086;-65
2022/12/25 01:52:12;;;;;;;0.60;0.23;;;;;;;;;;5073262;28;20027;-62
2022/12/25 01:54:41;;;;;;;1.07;0.53;;;;;;;;;;5073718;28;20079;-62
2022/12/25 01:57:09;;;;;;;3.23;0.80;;;;;;;;;;5073436;28;20029;-62
2022/12/25 01:59:36;;;;;;;5.97;4.03;;;;;;;;;;5073629;28;20082;-62
2022/12/25 02:02:03;;;;;;;6.37;1.97;;;;;;;;;;5068984;28;20471;-63
2022/12/25 02:04:37;;;;;;;1.47;0.97;;;;;;;;;;5068126;28;20028;-63
2022/12/25 02:07:06;;;;;;;1.27;0.75;;;;;;;;;;5068024;28;20078;-63
2022/12/25 02:09:33;;;;;;;4.13;0.80;;;;;;;;;;5067679;28;20479;-62
2022/12/25 02:12:00;;;;;;;5.97;1.27;;;;;;;;;;5071527;28;20112;-62
2022/12/25 02:14:28;;;;;;;1.90;1.10;;;;;;;;;;5073304;28;20029;-62
2022/12/25 02:17:19;;;;;;;1.20;1.00;;;;;;;;;;5073079;28;20024;-65
2022/12/25 02:19:48;;;;;;;1.30;0.97;;;;;;;;;;5073088;28;20029;-62
2022/12/25 02:22:28;;;;;;;2.40;1.17;;;;;;;;;;5072955;28;20029;-62
2022/12/25 02:25:08;;;;;;;0.83;0.70;;;;;;;;;;5067650;28;20074;-62
2022/12/25 02:27:37;;;;;;;3.47;1.60;;;;;;;;;;5067687;28;20028;-62
2022/12/25 02:30:08;;;;;;;1.70;1.07;;;;;;;;;;5067718;28;20060;-63
2022/12/25 02:32:42;;;;;;;3.40;1.20;;;;;;;;;;5067316;28;20089;-62
2022/12/25 02:35:16;;;;;;;2.42;1.50;;;;;;;;;;5072889;28;20024;-62
2022/12/25 02:37:49;;;;;;;3.27;1.97;;;;;;;;;;5072385;28;20025;-62
2022/12/25 02:40:23;;;;;;;2.63;1.80;;;;;;;;;;5072558;28;20115;-62
2022/12/25 03:08:13;;;;;;;1.23;0.97;;;;;;;;;;5069540;28;20459;-62
2022/12/25 03:13:30;;;;;;;1.63;1.20;;;;;;;;;;5066914;28;20124;-62
2022/12/25 03:18:42;;;;;;;3.55;1.45;;;;;;;;;;5070597;28;20039;-62
2022/12/25 03:26:56;;;;;;;5.33;1.30;;;;;;;;;;5061739;28;20459;-63
2022/12/25 03:32:17;;;;;;;2.87;1.70;;;;;;;;;;5066318;28;20032;-63
2022/12/25 04:36:13;;;;;;;13.13;5.03;;;;;;;;;;5054448;28;20482;-62
2022/12/25 04:38:41;;;;;;;5.07;2.67;;;;;;;;;;5049910;28;20083;-62
2022/12/25 04:41:08;;;;;;;4.77;2.33;;;;;;;;;;5055216;28;20033;-62
2022/12/25 04:43:35;;;;;;;5.03;3.30;;;;;;;;;;5069596;28;20111;-62
2022/12/25 04:46:02;;;;;;;3.80;2.97;;;;;;;;;;5069230;28;20470;-68
2022/12/25 04:48:30;;;;;;;8.73;3.57;;;;;;;;;;5074835;28;20264;-65
2022/12/25 04:50:57;;;;;;;4.87;2.77;;;;;;;;;;5074934;28;20036;-62
2022/12/25 04:53:24;;;;;;;6.57;2.93;;;;;;;;;;5074834;28;20311;-65
2022/12/25 04:55:50;;;;;;;3.23;2.10;;;;;;;;;;5074788;28;20463;-63
2022/12/25 04:58:17;;;;;;;3.40;1.83;;;;;;;;;;5073952;28;20258;-62
2022/12/25 05:00:44;;;;;;;4.03;2.33;;;;;;;;;;5068974;28;20024;-62
2022/12/25 05:03:10;;;;;;;6.67;3.77;;;;;;;;;;5068804;28;20268;-63
2022/12/25 05:05:39;;;;;;;4.90;2.40;;;;;;;;;;5069280;28;20024;-63
2022/12/25 05:08:06;;;;;;;3.20;2.00;;;;;;;;;;5069339;28;20048;-63
2022/12/25 05:10:33;;;;;;;4.50;3.00;;;;;;;;;;5074154;28;20285;-62
2022/12/25 05:12:59;;;;;;;3.60;2.20;;;;;;;;;;5074257;28;20273;-63
2022/12/25 05:15:26;;;;;;;1.43;1.20;;;;;;;;;;5074347;28;20246;-63
2022/12/25 05:17:53;;;;;;;2.87;2.07;;;;;;;;;;5072623;28;20609;-67
2022/12/25 05:20:19;;;;;;;3.37;2.03;;;;;;;;;;5073861;28;20258;-63
2022/12/25 05:22:46;;;;;;;4.07;1.90;;;;;;;;;;5068943;28;20299;-64
2022/12/25 05:25:13;;;;;;;4.27;2.43;;;;;;;;;;5069134;28;20269;-63
2022/12/25 05:27:39;;;;;;;3.03;1.83;;;;;;;;;;5068993;28;20253;-64
2022/12/25 05:30:06;;;;;;;2.90;1.87;;;;;;;;;;5068749;28;20376;-63
2022/12/25 05:32:33;;;;;;;4.87;2.03;;;;;;;;;;5073368;28;20685;-66
2022/12/25 05:35:00;;;;;;;4.67;2.80;;;;;;;;;;5073740;28;20292;-64
2022/12/25 05:37:26;;;;;;;5.10;2.60;;;;;;;;;;5073966;28;20295;-64
2022/12/25 05:39:53;;;;;;;3.00;1.37;;;;;;;;;;5073853;28;20340;-62
2022/12/25 05:42:20;;;;;;;5.67;2.97;;;;;;;;;;5073878;28;20257;-62
2022/12/25 05:44:46;;;;;;;21.47;2.00;;;;;;;;;;5068695;28;20287;-62
2022/12/25 05:47:13;;;;;;;3.90;2.77;;;;;;;;;;5068519;28;20264;-61
2022/12/25 05:49:40;;;;;;;1.60;1.13;;;;;;;;;;5067595;28;20285;-62
2022/12/25 05:52:06;;;;;;;2.87;2.07;;;;;;;;;;5068549;28;20269;-62
2022/12/25 05:54:34;;;;;;;3.50;2.57;;;;;;;;;;5073061;28;20308;-62
2022/12/25 05:57:00;;;;;;;4.43;2.97;;;;;;;;;;5073681;28;20262;-64
2022/12/25 05:59:29;;;;;;;3.23;2.17;;;;;;;;;;5073526;28;20577;-62
2022/12/25 06:01:56;;;;;;;3.63;2.40;;;;;;;;;;5073435;28;20293;-62
2022/12/25 06:04:23;;;;;;;2.97;1.63;;;;;;;;;;5073008;28;20261;-63
2022/12/25 06:06:49;;;;;;;2.47;2.03;;;;;;;;;;5068166;28;20731;-62
2022/12/25 06:09:16;;;;;;;2.27;1.70;;;;;;;;;;5068087;28;20343;-62
2022/12/25 06:11:43;;;;;;;2.07;1.33;;;;;;;;;;5067904;28;20305;-62
2022/12/25 06:14:14;;;;;;;2.93;1.73;;;;;;;;;;5067908;28;20735;-62
2022/12/25 06:16:41;;;;;;;2.83;1.37;;;;;;;;;;5072187;28;20254;-62
2022/12/25 06:19:07;;;;;;;2.37;1.90;;;;;;;;;;5072462;28;20270;-67
2022/12/25 06:21:34;;;;;;;1.33;1.17;;;;;;;;;;5073231;28;20600;-62
2022/12/25 06:24:01;;;;;;;2.70;2.00;;;;;;;;;;5072915;28;20253;-63
2022/12/25 06:26:27;;;;;;;4.60;3.17;;;;;;;;;;5072890;28;20257;-62
2022/12/25 06:28:54;;;;;;;3.17;2.50;;;;;;;;;;5068056;28;20257;-63
2022/12/25 06:31:22;;;;;;;3.67;2.00;;;;;;;;;;5066562;28;20806;-62
2022/12/25 06:33:49;;;;;;;2.80;1.73;;;;;;;;;;5067958;28;20253;-63
2022/12/25 06:36:20;;;;;;;2.50;1.73;;;;;;;;;;5067511;28;20270;-62
2022/12/25 06:38:47;;;;;;;38.83;2.90;;;;;;;;;;5071725;28;20757;-62
2022/12/25 06:41:15;;;;;;;1.80;1.63;;;;;;;;;;5072689;28;20269;-62
2022/12/25 06:43:42;;;;;;;2.13;1.70;;;;;;;;;;5072758;28;20253;-62
2022/12/25 06:46:09;;;;;;;2.73;1.40;;;;;;;;;;5072870;28;20755;-62
2022/12/25 06:48:37;;;;;;;2.03;1.67;;;;;;;;;;5072939;28;20261;-62
2022/12/25 06:51:04;;;;;;;2.43;1.47;;;;;;;;;;5067724;28;20273;-62
2022/12/25 06:53:31;;;;;;;1.80;1.10;;;;;;;;;;5067712;28;20276;-63
2022/12/25 06:56:08;;;;;;;2.23;1.70;;;;;;;;;;5067696;28;20305;-62
2022/12/25 06:58:35;;;;;;;3.43;2.37;;;;;;;;;;5067506;28;20830;-62
2022/12/25 07:01:13;;;;;;;2.33;1.90;;;;;;;;;;5071632;28;20245;-62
2022/12/25 07:03:41;;;;;;;4.47;2.27;;;;;;;;;;5064166;28;20297;-62
2022/12/25 07:06:08;;;;;;;3.10;2.23;;;;;;;;;;5072465;28;20256;-62
2022/12/25 07:08:35;;;;;;;1.70;1.50;;;;;;;;;;5062969;28;20797;-63
2022/12/25 07:11:01;;;;;;;2.70;2.00;;;;;;;;;;5070789;28;20297;-63
2022/12/25 07:13:28;;;;;;;2.70;1.93;;;;;;;;;;5067520;28;20268;-62
2022/12/25 07:15:59;;;;;;;3.27;2.43;;;;;;;;;;5066890;28;20724;-67
2022/12/25 07:18:26;;;;;;;6.03;2.23;;;;;;;;;;5067438;28;20263;-62
2022/12/25 07:20:54;;;;;;;5.70;1.97;;;;;;;;;;5067370;28;20253;-63
2022/12/25 07:23:24;;;;;;;2.17;1.07;;;;;;;;;;5071825;28;20803;-63
2022/12/25 07:26:09;;;;;;;5.03;2.20;;;;;;;;;;5072424;28;20250;-62
2022/12/25 07:28:36;;;;;;;4.25;2.28;;;;;;;;;;5071889;28;20368;-62
2022/12/25 07:31:13;;;;;;;0.90;0.73;;;;;;;;;;5072299;28;20024;-63
2022/12/25 07:33:40;;;;;;;1.53;1.30;;;;;;;;;;5071375;28;20292;-62
2022/12/25 07:36:07;;;;;;;0.60;0.60;;;;;;;;;;5067067;28;20256;-63
2022/12/25 07:38:34;;;;;;;0.50;0.40;;;;;;;;;;5067186;28;20349;-68
2022/12/25 07:41:01;;;;;;;0.57;0.57;;;;;;;;;;5067025;28;20268;-63
2022/12/25 07:43:27;;;;;;;1.63;0.77;;;;;;;;;;5071291;28;20493;-63
2022/12/25 07:45:55;;;;;;;3.37;1.20;;;;;;;;;;5076299;28;20336;-63
2022/12/25 07:48:22;;;;;;;2.30;1.03;;;;;;;;;;5076179;28;20258;-62
2022/12/25 07:50:49;;;;;;;1.53;1.20;;;;;;;;;;5075331;28;20376;-62
2022/12/25 07:53:15;;;;;;;0.43;0.30;;;;;;;;;;5075945;28;20257;-62
2022/12/25 07:55:42;;;;;;;0.97;0.83;;;;;;;;;;5075140;28;20257;-63
2022/12/25 07:58:08;;;;;;;1.20;0.67;;;;;;;;;;5071050;28;20726;-62
2022/12/25 08:00:35;;;;;;;0.70;0.60;;;;;;;;;;5070798;28;20615;-62
2022/12/25 08:03:02;;;;;;;1.57;1.17;;;;;;;;;;5070853;28;20261;-62
2022/12/25 08:05:28;;;;;;;1.53;0.80;;;;;;;;;;5070675;28;20268;-62
2022/12/25 08:07:55;;;;;;;0.97;0.60;;;;;;;;;;5075119;28;20285;-62
2022/12/25 08:10:22;;;;;;;0.30;0.30;;;;;;;;;;5075250;28;20819;-63
2022/12/25 08:12:50;;;;;;;1.80;1.17;;;;;;;;;;5075682;28;20277;-63
2022/12/25 08:15:17;;;;;;;0.50;0.50;;;;;;;;;;5075475;28;20265;-63
2022/12/25 08:17:44;;;;;;;2.07;1.33;;;;;;;;;;5075369;28;20719;-62
2022/12/25 08:20:10;;;;;;;1.33;0.80;;;;;;;;;;5070523;28;20988;-62
2022/12/25 08:22:37;;;;;;;0.77;0.60;;;;;;;;;;5070536;28;20261;-62
2022/12/25 08:25:04;;;;;;;0.43;0.43;;;;;;;;;;5070148;28;20257;-68
2022/12/25 08:27:31;;;;;;;1.97;1.23;;;;;;;;;;5070383;28;20265;-62
2022/12/25 08:29:58;;;;;;;1.03;0.87;;;;;;;;;;5074837;28;20735;-62
2022/12/25 08:32:24;;;;;;;0.90;0.73;;;;;;;;;;5075431;28;20269;-62
2022/12/25 08:34:51;;;;;;;0.60;0.50;;;;;;;;;;5075449;28;20249;-62
2022/12/25 08:37:18;;;;;;;0.70;0.60;;;;;;;;;;5075155;28;20646;-62
2022/12/25 08:39:44;;;;;;;1.07;0.80;;;;;;;;;;5075413;28;20592;-63
2022/12/25 08:42:11;;;;;;;0.63;0.63;;;;;;;;;;5069743;28;20258;-62
2022/12/25 08:44:38;;;;;;;0.87;0.67;;;;;;;;;;5070198;28;20276;-62
2022/12/25 08:47:05;;;;;;;0.87;0.70;;;;;;;;;;5069880;28;20277;-62
2022/12/25 08:49:31;;;;;;;0.80;0.60;;;;;;;;;;5070001;28;20292;-62
2022/12/25 08:51:58;;;;;;;5.67;1.00;;;;;;;;;;5074186;28;20260;-62
2022/12/25 08:54:25;;;;;;;0.40;0.40;;;;;;;;;;5074137;28;20253;-62
2022/12/25 08:56:51;;;;;;;0.40;0.40;;;;;;;;;;5074181;28;20265;-63
2022/12/25 08:59:18;;;;;;;1.43;0.90;;;;;;;;;;5074958;28;20341;-62
2022/12/25 09:01:45;;;;;;;1.27;0.70;;;;;;;;;;5073462;28;20678;-62
2022/12/25 09:04:11;;;;;;;3.77;1.50;;;;;;;;;;5070245;28;20272;-62
2022/12/25 09:06:38;;;;;;;1.33;0.97;;;;;;;;;;5069658;28;20766;-62
2022/12/25 09:09:05;;;;;;;0.60;0.60;;;;;;;;;;5069657;28;20352;-62
2022/12/25 09:11:31;;;;;;;2.37;0.77;;;;;;;;;;5069117;28;20269;-63
2022/12/25 09:13:58;;;;;;;1.83;0.93;;;;;;;;;;5073168;28;20249;-62
2022/12/25 09:16:25;;;;;;;2.93;1.23;;;;;;;;;;5074159;28;20771;-62
2022/12/25 09:18:51;;;;;;;1.37;0.67;;;;;;;;;;5074553;28;20253;-62
2022/12/25 09:21:19;;;;;;;0.73;0.40;;;;;;;;;;5074453;28;20252;-62
2022/12/25 09:23:45;;;;;;;2.30;0.93;;;;;;;;;;5074305;28;20281;-62
2022/12/25 09:26:13;;;;;;;1.00;0.90;;;;;;;;;;5069699;28;20260;-66
2022/12/25 09:28:41;;;;;;;0.70;0.60;;;;;;;;;;5069295;28;20254;-62
2022/12/25 09:31:07;;;;;;;2.30;1.23;;;;;;;;;;5069221;28;20285;-62
2022/12/25 09:33:34;;;;;;;0.77;0.50;;;;;;;;;;5069287;28;20272;-62
2022/12/25 09:36:05;;;;;;;0.80;0.60;;;;;;;;;;5072878;28;20870;-62
2022/12/25 09:38:33;;;;;;;1.27;0.70;;;;;;;;;;5074143;28;20253;-62
2022/12/25 09:41:01;;;;;;;0.40;0.40;;;;;;;;;;5073585;28;20794;-62
2022/12/25 09:43:30;;;;;;;0.70;0.63;;;;;;;;;;5073912;28;20261;-63
2022/12/25 09:45:58;;;;;;;2.63;1.10;;;;;;;;;;5073744;28;20268;-62
2022/12/25 09:48:27;;;;;;;0.63;0.53;;;;;;;;;;5068755;28;20281;-62
2022/12/25 09:51:07;;;;;;;0.53;0.53;;;;;;;;;;5068690;28;20309;-63
2022/12/25 09:53:39;;;;;;;0.33;0.33;;;;;;;;;;5068820;28;20294;-63
2022/12/25 09:56:11;;;;;;;0.40;0.40;;;;;;;;;;5068692;28;20372;-62
2022/12/25 09:58:37;;;;;;;1.10;0.87;;;;;;;;;;5073433;28;20257;-62
2022/12/25 10:01:13;;;;;;;0.50;0.50;;;;;;;;;;5073599;28;20253;-62
2022/12/25 10:03:58;;;;;;;0.50;0.37;;;;;;;;;;5073171;28;20257;-62
2022/12/25 10:06:37;;;;;;;0.60;0.52;;;;;;;;;;5073359;28;20262;-62
2022/12/25 10:09:19;;;;;;;1.07;0.80;;;;;;;;;;5071846;28;20021;-62
2022/12/25 10:11:45;;;;;;;2.03;0.90;;;;;;;;;;5068170;28;20297;-62
2022/12/25 10:14:12;;;;;;;3.90;0.93;;;;;;;;;;5068331;28;20287;-62
2022/12/25 10:17:02;;;;;;;0.30;0.30;;;;;;;;;;5067867;28;20329;-62
2022/12/25 10:19:37;;;;;;;0.77;0.63;;;;;;;;;;5069388;28;20292;-66
2022/12/25 10:22:10;;;;;;;0.43;0.43;;;;;;;;;;5073019;28;20372;-62
2022/12/25 10:24:40;;;;;;;0.20;0.20;;;;;;;;;;5073137;28;20264;-63
2022/12/25 10:27:20;;;;;;;0.53;0.47;;;;;;;;;;5073134;28;20249;-63
2022/12/25 10:29:49;;;;;;;0.77;0.67;;;;;;;;;;5072703;28;20293;-62
2022/12/25 10:32:15;;;;;;;0.20;0.20;;;;;;;;;;5069539;28;20257;-62
2022/12/25 10:34:42;;;;;;;0.30;0.30;;;;;;;;;;5067939;28;20257;-62
2022/12/25 10:37:10;;;;;;;0.20;0.20;;;;;;;;;;5067909;28;20593;-62
2022/12/25 10:39:37;;;;;;;2.13;1.17;;;;;;;;;;5067778;28;20265;-62
2022/12/25 10:42:23;;;;;;;0.63;0.50;;;;;;;;;;5070611;28;20261;-67
2022/12/25 10:44:56;;;;;;;0.30;0.30;;;;;;;;;;5072693;28;20599;-63
2022/12/25 10:47:28;;;;;;;0.33;0.33;;;;;;;;;;5056458;28;20265;-62
2022/12/25 10:49:54;;;;;;;0.30;0.30;;;;;;;;;;5072329;28;20284;-62
2022/12/25 10:52:22;;;;;;;0.40;0.40;;;;;;;;;;5072264;28;20335;-63
2022/12/25 10:54:49;;;;;;;1.20;1.00;;;;;;;;;;5068120;28;20369;-62
2022/12/25 10:57:17;;;;;;;0.80;0.50;;;;;;;;;;5067500;28;20289;-63
2022/12/25 10:59:44;;;;;;;0.97;0.77;;;;;;;;;;5067700;28;20261;-62
2022/12/25 11:02:27;;;;;;;3.70;1.07;;;;;;;;;;5067403;28;20253;-62
2022/12/25 11:05:14;;;;;;;0.40;0.40;;;;;;;;;;5071961;28;20310;-62
2022/12/25 11:07:53;;;;;;;2.10;0.30;;;;;;;;;;5072532;28;20264;-62
2022/12/25 11:10:22;;;;;;;0.20;0.20;;;;;;;;;;5072476;28;20284;-62
2022/12/25 11:12:49;;;;;;;1.90;0.70;;;;;;;;;;5072386;28;20265;-63
2022/12/25 11:15:35;;;;;;;1.30;1.10;;;;;;;;;;5071144;28;20796;-63
2022/12/25 11:18:02;;;;;;;2.08;0.75;;;;;;;;;;5066982;28;20266;-62
2022/12/25 11:20:29;;;;;;;0.93;0.77;;;;;;;;;;5067374;28;20024;-61
2022/12/25 11:22:56;;;;;;;0.50;0.50;;;;;;;;;;5067016;28;20623;-62
2022/12/25 11:25:24;;;;;;;3.20;0.33;;;;;;;;;;5068383;28;20257;-62
2022/12/25 11:28:01;;;;;;;0.43;0.37;;;;;;;;;;5072505;28;20257;-62
2022/12/25 11:30:32;;;;;;;1.47;0.90;;;;;;;;;;5072116;28;20755;-62
2022/12/25 11:33:07;;;;;;;0.20;0.20;;;;;;;;;;5072279;28;20307;-67
2022/12/25 11:35:44;;;;;;;0.10;0.10;;;;;;;;;;5072280;28;20649;-62
2022/12/25 11:38:11;;;;;;;7.00;0.50;;;;;;;;;;5069564;28;20055;-62
2022/12/25 11:40:58;;;;;;;0.53;0.47;;;;;;;;;;5067223;28;20292;-62
2022/12/25 11:43:29;;;;;;;0.43;0.40;;;;;;;;;;5067106;28;20254;-63
2022/12/25 11:46:01;;;;;;;0.37;0.37;;;;;;;;;;5067026;28;20326;-62
2022/12/25 11:48:31;;;;;;;0.20;0.20;;;;;;;;;;5070044;28;20253;-62
2022/12/25 11:50:59;;;;;;;0.30;0.30;;;;;;;;;;5071953;28;20330;-63
2022/12/25 11:53:31;;;;;;;0.40;0.33;;;;;;;;;;5071746;28;20289;-62
2022/12/25 11:56:01;;;;;;;0.20;0.20;;;;;;;;;;5072157;28;20376;-62
2022/12/25 11:58:30;;;;;;;0.20;0.20;;;;;;;;;;5072083;28;20261;-62
2022/12/25 12:00:58;;;;;;;0.40;0.30;;;;;;;;;;5068025;28;20344;-62
2022/12/25 12:03:53;;;;;;;0.83;0.70;;;;;;;;;;5066988;28;20261;-63
2022/12/25 12:06:27;;;;;;;0.57;0.35;;;;;;;;;;5062102;28;20695;-62
2022/12/25 12:08:59;;;;;;;0.53;0.47;;;;;;;;;;5066806;28;20035;-62
2022/12/25 12:11:32;;;;;;;0.20;0.20;;;;;;;;;;5071783;28;20274;-63
2022/12/25 12:14:05;;;;;;;0.20;0.20;;;;;;;;;;5071968;28;20249;-62
2022/12/25 12:16:32;;;;;;;0.33;0.30;;;;;;;;;;5071654;28;20261;-62
2022/12/25 12:18:58;;;;;;;0.10;0.10;;;;;;;;;;5071812;28;20383;-62
2022/12/25 12:21:25;;;;;;;0.10;0.10;;;;;;;;;;5071107;28;20246;-62
2022/12/25 12:23:53;;;;;;;0.20;0.20;;;;;;;;;;5066683;28;20746;-62
2022/12/25 12:26:29;;;;;;;0.10;0.10;;;;;;;;;;5066420;28;20260;-63
2022/12/25 12:29:00;;;;;;;0.83;0.57;;;;;;;;;;5067978;28;20751;-62
2022/12/25 12:31:44;;;;;;;0.10;0.10;;;;;;;;;;5070839;28;20250;-62
2022/12/25 12:34:28;;;;;;;0.27;0.20;;;;;;;;;;5075017;28;20262;-63
2022/12/25 12:37:03;;;;;;;0.10;0.10;;;;;;;;;;5075319;28;20254;-62
2022/12/25 12:39:40;;;;;;;0.32;0.30;;;;;;;;;;5075114;28;20744;-62
2022/12/25 12:42:18;;;;;;;0.10;0.10;;;;;;;;;;5074793;28;20063;-62
2022/12/25 12:44:46;;;;;;;0.77;0.33;;;;;;;;;;5071768;28;20823;-62
2022/12/25 12:47:47;;;;;;;0.23;0.17;;;;;;;;;;5070039;28;20253;-62
2022/12/25 12:50:26;;;;;;;0.10;0.10;;;;;;;;;;5069776;28;20285;-62
2022/12/25 12:52:53;;;;;;;0.17;0.17;;;;;;;;;;5070057;28;20261;-62
2022/12/25 12:55:30;;;;;;;0.47;0.47;;;;;;;;;;5073902;28;20260;-62
2022/12/25 12:58:05;;;;;;;1.33;0.57;;;;;;;;;;5074666;28;20257;-63
2022/12/25 13:00:46;;;;;;;0.10;0.10;;;;;;;;;;5075038;28;20261;-62
2022/12/25 13:03:45;;;;;;;0.03;0.03;;;;;;;;;;5074871;28;20035;-62
2022/12/25 13:06:17;;;;;;;0.83;0.60;;;;;;;;;;5060819;28;20338;-62
2022/12/25 13:08:47;;;;;;;0.17;0.13;;;;;;;;;;5069689;28;20269;-62
2022/12/25 13:11:13;;;;;;;0.20;0.20;;;;;;;;;;5069427;28;20289;-62
2022/12/25 13:13:41;;;;;;;0.40;0.20;;;;;;;;;;5069385;28;20261;-62
2022/12/25 13:16:34;;;;;;;0.30;0.30;;;;;;;;;;5070226;28;20280;-62
2022/12/25 13:19:04;;;;;;;0.20;0.20;;;;;;;;;;5073582;28;20277;-62
2022/12/25 13:21:32;;;;;;;0.30;0.30;;;;;;;;;;5074344;28;20287;-62
2022/12/25 13:24:07;;;;;;;0.63;0.43;;;;;;;;;;5074128;28;20260;-62
2022/12/25 13:26:34;;;;;;;0.30;0.30;;;;;;;;;;5074381;28;20310;-62
2022/12/25 13:29:01;;;;;;;0.80;0.50;;;;;;;;;;5071045;28;20315;-62
2022/12/25 13:31:29;;;;;;;0.30;0.30;;;;;;;;;;5069004;28;20273;-62
2022/12/25 13:34:00;;;;;;;1.23;0.90;;;;;;;;;;5069096;28;20260;-62
2022/12/25 13:36:28;;;;;;;1.07;0.47;;;;;;;;;;5068653;28;20258;-62
2022/12/25 13:38:56;;;;;;;0.80;0.43;;;;;;;;;;5071623;28;20818;-62
2022/12/25 13:44:20;;;;;;;1.07;0.70;;;;;;;;;;5074114;28;20272;-62
2022/12/25 13:46:47;;;;;;;0.37;0.30;;;;;;;;;;5073774;28;20308;-63
2022/12/25 13:49:15;;;;;;;0.43;0.43;;;;;;;;;;5073898;28;20288;-62
2022/12/25 13:51:42;;;;;;;1.03;0.40;;;;;;;;;;5069292;28;20261;-62
2022/12/25 13:54:11;;;;;;;0.30;0.30;;;;;;;;;;5068352;28;20269;-62
2022/12/25 13:56:37;;;;;;;0.87;0.57;;;;;;;;;;5068788;28;20257;-62
2022/12/25 13:59:04;;;;;;;0.30;0.20;;;;;;;;;;5068318;28;20739;-63
2022/12/25 14:01:31;;;;;;;0.00;0.00;;;;;;;;;;5072481;28;20353;-62
2022/12/25 14:03:58;;;;;;;0.43;0.20;;;;;;;;;;5073422;28;20253;-62
2022/12/25 14:06:26;;;;;;;0.10;0.10;;;;;;;;;;5073574;28;20269;-63
2022/12/25 14:08:54;;;;;;;0.10;0.10;;;;;;;;;;5073244;28;20315;-62
2022/12/25 14:11:21;;;;;;;0.20;0.10;;;;;;;;;;5073153;28;20277;-65
2022/12/25 14:13:49;;;;;;;0.27;0.17;;;;;;;;;;5068833;28;20268;-63
2022/12/25 14:16:17;;;;;;;0.97;0.70;;;;;;;;;;5068511;28;20751;-62
2022/12/25 14:18:51;;;;;;;0.50;0.23;;;;;;;;;;5068189;28;20387;-63
2022/12/25 14:21:28;;;;;;;0.30;0.30;;;;;;;;;;5068039;28;20016;-62
2022/12/25 14:23:55;;;;;;;2.10;0.70;;;;;;;;;;5072251;28;20025;-62
2022/12/25 14:26:24;;;;;;;3.37;1.07;;;;;;;;;;5073229;28;20028;-62
2022/12/25 14:29:13;;;;;;;2.93;0.57;;;;;;;;;;5073216;28;20031;-62
2022/12/25 14:31:40;;;;;;;1.13;0.90;;;;;;;;;;5069933;28;20115;-65
2022/12/25 14:34:11;;;;;;;0.43;0.37;;;;;;;;;;5072129;28;20020;-62
2022/12/25 14:36:37;;;;;;;0.20;0.10;;;;;;;;;;5067778;28;20025;-62
2022/12/25 14:39:05;;;;;;;0.13;0.13;;;;;;;;;;5067770;28;20383;-63
2022/12/25 14:41:36;;;;;;;0.70;0.50;;;;;;;;;;5067875;28;20029;-63
2022/12/25 14:44:05;;;;;;;0.10;0.10;;;;;;;;;;5068383;28;20093;-63
2022/12/25 14:46:33;;;;;;;0.10;0.10;;;;;;;;;;5072556;28;20032;-63
2022/12/25 14:48:59;;;;;;;1.10;0.63;;;;;;;;;;5072583;28;20028;-62
2022/12/25 14:51:27;;;;;;;0.63;0.40;;;;;;;;;;5072069;28;20110;-63
2022/12/25 14:53:55;;;;;;;0.67;0.20;;;;;;;;;;5072685;28;20479;-62
2022/12/25 14:56:23;;;;;;;0.43;0.27;;;;;;;;;;5071440;28;20390;-63
2022/12/25 14:58:54;;;;;;;0.70;0.43;;;;;;;;;;5067582;28;20032;-63
2022/12/25 15:01:32;;;;;;;0.10;0.10;;;;;;;;;;5067494;28;20066;-63
2022/12/25 15:04:07;;;;;;;0.00;0.00;;;;;;;;;;5067328;28;20028;-62
2022/12/25 15:06:34;;;;;;;0.37;0.10;;;;;;;;;;5068547;28;20028;-62
2022/12/25 15:09:02;;;;;;;0.10;0.10;;;;;;;;;;5072298;28;20025;-66
2022/12/25 15:11:29;;;;;;;0.40;0.03;;;;;;;;;;5072214;28;20036;-63
2022/12/25 15:13:59;;;;;;;0.10;0.00;;;;;;;;;;5072321;28;20040;-62
2022/12/25 15:16:28;;;;;;;0.10;0.00;;;;;;;;;;5072429;28;20475;-63
2022/12/25 15:18:55;;;;;;;0.00;0.00;;;;;;;;;;5070429;28;20099;-63
2022/12/25 15:21:22;;;;;;;0.50;0.20;;;;;;;;;;5067345;28;20035;-63
2022/12/25 15:23:48;;;;;;;0.00;0.00;;;;;;;;;;5066993;28;20036;-63
2022/12/25 15:26:15;;;;;;;0.10;0.10;;;;;;;;;;5067438;28;20029;-63
2022/12/25 15:28:42;;;;;;;0.27;0.10;;;;;;;;;;5068527;28;20462;-63
2022/12/25 15:31:20;;;;;;;0.00;0.00;;;;;;;;;;5072219;28;20024;-63
2022/12/25 15:33:47;;;;;;;0.63;0.30;;;;;;;;;;5072331;28;20043;-63
2022/12/25 15:36:14;;;;;;;0.10;0.10;;;;;;;;;;5071695;28;20086;-63
2022/12/25 15:38:41;;;;;;;0.00;0.00;;;;;;;;;;5072216;28;20016;-63
2022/12/25 15:42:09;;;;;;;0.00;0.00;;;;;;;;;;5070146;28;20463;-64
2022/12/25 15:44:01;;;;;;;0.00;0.00;;;;;;;;;;5067126;28;20489;-64
2022/12/25 15:46:28;;;;;;;0.00;0.00;;;;;;;;;;5066604;28;20040;-64
2022/12/25 15:48:54;;;;;;;0.10;0.10;;;;;;;;;;5067318;28;20059;-64
2022/12/25 15:51:21;;;;;;;0.17;0.10;;;;;;;;;;5069051;28;20086;-64
2022/12/25 15:53:48;;;;;;;0.53;0.10;;;;;;;;;;5072043;28;20066;-64
2022/12/25 15:56:15;;;;;;;0.57;0.30;;;;;;;;;;5072015;28;20081;-64
2022/12/25 15:58:42;;;;;;;0.33;0.10;;;;;;;;;;5053088;28;20021;-64
2022/12/25 16:01:14;;;;;;;0.00;0.00;;;;;;;;;;5052655;28;20025;-64
2022/12/25 16:03:41;;;;;;;0.07;0.07;;;;;;;;;;5071653;28;20028;-63
2022/12/25 16:06:15;;;;;;;0.20;0.10;;;;;;;;;;5071125;28;20078;-63
2022/12/25 16:08:42;;;;;;;1.00;0.20;;;;;;;;;;5070832;28;20024;-63
2022/12/25 16:11:09;;;;;;;0.03;0.03;;;;;;;;;;5070180;28;20526;-64
2022/12/25 16:13:36;;;;;;;0.10;0.10;;;;;;;;;;5073013;28;20054;-64
2022/12/25 16:16:05;;;;;;;0.10;0.10;;;;;;;;;;5075833;28;20127;-63
2022/12/25 16:18:32;;;;;;;0.00;0.00;;;;;;;;;;5075445;28;20024;-64
2022/12/25 16:20:59;;;;;;;5.00;0.23;;;;;;;;;;5075493;28;20065;-63
2022/12/25 16:23:26;;;;;;;0.50;0.20;;;;;;;;;;5075588;28;20024;-63
2022/12/25 16:25:52;;;;;;;0.63;0.20;;;;;;;;;;5072146;28;20036;-64
2022/12/25 16:28:19;;;;;;;0.00;0.00;;;;;;;;;;5070076;28;20025;-65
2022/12/25 16:30:46;;;;;;;0.00;0.00;;;;;;;;;;5070120;28;20036;-64
2022/12/25 16:33:12;;;;;;;0.20;0.20;;;;;;;;;;5070254;28;20028;-64
2022/12/25 16:35:39;;;;;;;0.33;0.23;;;;;;;;;;5072699;28;20078;-65
2022/12/25 16:38:06;;;;;;;0.10;0.10;;;;;;;;;;5075172;28;20100;-65
2022/12/25 16:40:33;;;;;;;0.27;0.20;;;;;;;;;;5074898;28;20024;-64